sensor_id;sensor_type;location;lat;lon;timestamp;P1;durP1;ratioP1;P2;durP2;ratioP2
66478;SDS011;53294;47.912;13.526;2023-08-24T00:04:12;7.72;;;4.97;;
66478;SDS011;53294;47.912;13.526;2023-08-24T00:09:05;6.80;;;4.53;;
66478;SDS011;53294;47.912;13.526;2023-08-24T00:11:33;6.70;;;4.35;;
66478;SDS011;53294;47.912;13.526;2023-08-24T00:16:26;7.28;;;4.40;;
66478;SDS011;53294;47.912;13.526;2023-08-24T00:18:53;6.05;;;4.43;;
66478;SDS011;53294;47.912;13.526;2023-08-24T00:21:19;7.68;;;4.40;;
66478;SDS011;53294;47.912;13.526;2023-08-24T00:23:50;5.95;;;4.55;;
66478;SDS011;53294;47.912;13.526;2023-08-24T00:26:17;5.53;;;4.00;;
66478;SDS011;53294;47.912;13.526;2023-08-24T00:28:44;9.55;;;4.63;;
66478;SDS011;53294;47.912;13.526;2023-08-24T00:31:12;6.28;;;4.25;;
66478;SDS011;53294;47.912;13.526;2023-08-24T00:33:39;7.78;;;4.20;;
66478;SDS011;53294;47.912;13.526;2023-08-24T00:36:06;7.20;;;4.53;;
66478;SDS011;53294;47.912;13.526;2023-08-24T00:38:33;5.95;;;4.22;;
66478;SDS011;53294;47.912;13.526;2023-08-24T00:41:00;7.53;;;4.38;;
66478;SDS011;53294;47.912;13.526;2023-08-24T00:43:27;6.15;;;4.22;;
66478;SDS011;53294;47.912;13.526;2023-08-24T00:45:59;6.53;;;4.60;;
66478;SDS011;53294;47.912;13.526;2023-08-24T00:48:27;6.25;;;4.30;;
66478;SDS011;53294;47.912;13.526;2023-08-24T00:50:57;5.82;;;4.28;;
66478;SDS011;53294;47.912;13.526;2023-08-24T00:53:26;9.43;;;4.35;;
66478;SDS011;53294;47.912;13.526;2023-08-24T00:55:54;8.23;;;4.78;;
66478;SDS011;53294;47.912;13.526;2023-08-24T00:58:21;8.85;;;4.68;;
66478;SDS011;53294;47.912;13.526;2023-08-24T01:00:49;7.22;;;4.25;;
66478;SDS011;53294;47.912;13.526;2023-08-24T01:03:18;6.15;;;4.70;;
66478;SDS011;53294;47.912;13.526;2023-08-24T01:05:45;5.50;;;4.28;;
66478;SDS011;53294;47.912;13.526;2023-08-24T01:08:12;8.18;;;4.75;;
66478;SDS011;53294;47.912;13.526;2023-08-24T01:10:50;6.15;;;4.60;;
66478;SDS011;53294;47.912;13.526;2023-08-24T01:13:21;6.57;;;4.68;;
66478;SDS011;53294;47.912;13.526;2023-08-24T01:16:00;9.45;;;4.80;;
66478;SDS011;53294;47.912;13.526;2023-08-24T01:18:35;10.55;;;5.07;;
66478;SDS011;53294;47.912;13.526;2023-08-24T01:21:02;5.55;;;4.30;;
66478;SDS011;53294;47.912;13.526;2023-08-24T01:26:09;6.97;;;4.90;;
66478;SDS011;53294;47.912;13.526;2023-08-24T01:28:38;6.65;;;4.40;;
66478;SDS011;53294;47.912;13.526;2023-08-24T01:31:05;8.10;;;4.75;;
66478;SDS011;53294;47.912;13.526;2023-08-24T01:33:32;6.53;;;4.78;;
66478;SDS011;53294;47.912;13.526;2023-08-24T01:38:25;6.60;;;4.75;;
66478;SDS011;53294;47.912;13.526;2023-08-24T01:43:38;7.22;;;5.22;;
66478;SDS011;53294;47.912;13.526;2023-08-24T01:46:10;6.68;;;4.78;;
66478;SDS011;53294;47.912;13.526;2023-08-24T01:48:42;7.28;;;4.60;;
66478;SDS011;53294;47.912;13.526;2023-08-24T01:51:09;8.50;;;4.50;;
66478;SDS011;53294;47.912;13.526;2023-08-24T01:53:36;5.55;;;4.07;;
66478;SDS011;53294;47.912;13.526;2023-08-24T01:56:15;6.35;;;4.93;;
66478;SDS011;53294;47.912;13.526;2023-08-24T01:58:42;7.28;;;4.30;;
66478;SDS011;53294;47.912;13.526;2023-08-24T02:01:09;5.63;;;4.55;;
66478;SDS011;53294;47.912;13.526;2023-08-24T02:03:37;6.05;;;4.32;;
66478;SDS011;53294;47.912;13.526;2023-08-24T02:06:06;5.90;;;4.72;;
66478;SDS011;53294;47.912;13.526;2023-08-24T02:08:33;5.20;;;4.18;;
66478;SDS011;53294;47.912;13.526;2023-08-24T02:11:00;8.68;;;4.50;;
66478;SDS011;53294;47.912;13.526;2023-08-24T02:13:27;7.00;;;5.00;;
66478;SDS011;53294;47.912;13.526;2023-08-24T02:16:01;7.10;;;4.47;;
66478;SDS011;53294;47.912;13.526;2023-08-24T02:18:31;7.50;;;5.10;;
66478;SDS011;53294;47.912;13.526;2023-08-24T02:20:59;6.25;;;4.50;;
66478;SDS011;53294;47.912;13.526;2023-08-24T02:23:25;6.85;;;4.68;;
66478;SDS011;53294;47.912;13.526;2023-08-24T02:25:52;11.80;;;5.22;;
66478;SDS011;53294;47.912;13.526;2023-08-24T02:30:45;7.95;;;5.13;;
66478;SDS011;53294;47.912;13.526;2023-08-24T02:35:38;6.28;;;4.30;;
66478;SDS011;53294;47.912;13.526;2023-08-24T02:38:05;7.80;;;5.10;;
66478;SDS011;53294;47.912;13.526;2023-08-24T02:40:32;6.90;;;4.72;;
66478;SDS011;53294;47.912;13.526;2023-08-24T02:42:59;6.25;;;4.93;;
66478;SDS011;53294;47.912;13.526;2023-08-24T02:47:52;6.50;;;4.75;;
66478;SDS011;53294;47.912;13.526;2023-08-24T02:50:19;7.25;;;4.88;;
66478;SDS011;53294;47.912;13.526;2023-08-24T02:52:45;6.15;;;4.65;;
66478;SDS011;53294;47.912;13.526;2023-08-24T02:55:13;6.65;;;4.70;;
66478;SDS011;53294;47.912;13.526;2023-08-24T03:00:06;6.10;;;4.93;;
66478;SDS011;53294;47.912;13.526;2023-08-24T03:02:33;7.28;;;5.07;;
66478;SDS011;53294;47.912;13.526;2023-08-24T03:05:00;8.18;;;4.85;;
66478;SDS011;53294;47.912;13.526;2023-08-24T03:07:27;9.48;;;5.60;;
66478;SDS011;53294;47.912;13.526;2023-08-24T03:09:54;8.43;;;4.95;;
66478;SDS011;53294;47.912;13.526;2023-08-24T03:14:47;7.93;;;5.28;;
66478;SDS011;53294;47.912;13.526;2023-08-24T03:17:17;10.20;;;4.93;;
66478;SDS011;53294;47.912;13.526;2023-08-24T03:19:44;6.70;;;4.90;;
66478;SDS011;53294;47.912;13.526;2023-08-24T03:22:11;6.80;;;5.00;;
66478;SDS011;53294;47.912;13.526;2023-08-24T03:24:38;7.75;;;4.93;;
66478;SDS011;53294;47.912;13.526;2023-08-24T03:29:31;9.07;;;5.07;;
66478;SDS011;53294;47.912;13.526;2023-08-24T03:34:24;7.72;;;5.20;;
66478;SDS011;53294;47.912;13.526;2023-08-24T03:36:51;8.15;;;4.75;;
66478;SDS011;53294;47.912;13.526;2023-08-24T03:41:44;7.40;;;4.28;;
66478;SDS011;53294;47.912;13.526;2023-08-24T03:46:37;7.10;;;4.03;;
66478;SDS011;53294;47.912;13.526;2023-08-24T03:51:31;6.78;;;4.05;;
66478;SDS011;53294;47.912;13.526;2023-08-24T03:53:58;7.38;;;4.85;;
66478;SDS011;53294;47.912;13.526;2023-08-24T03:58:51;9.13;;;4.90;;
66478;SDS011;53294;47.912;13.526;2023-08-24T04:03:44;6.75;;;4.60;;
66478;SDS011;53294;47.912;13.526;2023-08-24T04:06:11;6.50;;;4.85;;
66478;SDS011;53294;47.912;13.526;2023-08-24T04:11:04;8.00;;;5.03;;
66478;SDS011;53294;47.912;13.526;2023-08-24T04:13:30;6.72;;;4.60;;
66478;SDS011;53294;47.912;13.526;2023-08-24T04:18:24;5.22;;;4.18;;
66478;SDS011;53294;47.912;13.526;2023-08-24T04:20:51;8.07;;;4.15;;
66478;SDS011;53294;47.912;13.526;2023-08-24T04:23:23;6.60;;;4.70;;
66478;SDS011;53294;47.912;13.526;2023-08-24T04:25:53;6.00;;;4.28;;
66478;SDS011;53294;47.912;13.526;2023-08-24T04:28:20;7.05;;;4.88;;
66478;SDS011;53294;47.912;13.526;2023-08-24T04:30:53;6.28;;;4.32;;
66478;SDS011;53294;47.912;13.526;2023-08-24T04:33:22;7.65;;;4.68;;
66478;SDS011;53294;47.912;13.526;2023-08-24T04:35:49;6.32;;;4.05;;
66478;SDS011;53294;47.912;13.526;2023-08-24T04:38:16;6.68;;;4.75;;
66478;SDS011;53294;47.912;13.526;2023-08-24T04:40:48;5.78;;;4.22;;
66478;SDS011;53294;47.912;13.526;2023-08-24T04:43:17;6.63;;;4.22;;
66478;SDS011;53294;47.912;13.526;2023-08-24T04:45:54;7.35;;;4.60;;
66478;SDS011;53294;47.912;13.526;2023-08-24T04:48:21;6.82;;;4.88;;
66478;SDS011;53294;47.912;13.526;2023-08-24T04:50:49;8.57;;;4.75;;
66478;SDS011;53294;47.912;13.526;2023-08-24T04:53:17;6.97;;;4.30;;
66478;SDS011;53294;47.912;13.526;2023-08-24T04:55:44;5.75;;;4.10;;
66478;SDS011;53294;47.912;13.526;2023-08-24T04:58:12;6.20;;;4.38;;
66478;SDS011;53294;47.912;13.526;2023-08-24T05:00:39;6.05;;;4.20;;
66478;SDS011;53294;47.912;13.526;2023-08-24T05:03:06;6.43;;;4.50;;
66478;SDS011;53294;47.912;13.526;2023-08-24T05:05:34;6.55;;;4.45;;
66478;SDS011;53294;47.912;13.526;2023-08-24T05:08:02;6.95;;;4.00;;
66478;SDS011;53294;47.912;13.526;2023-08-24T05:10:32;6.72;;;4.38;;
66478;SDS011;53294;47.912;13.526;2023-08-24T05:13:00;6.82;;;4.78;;
66478;SDS011;53294;47.912;13.526;2023-08-24T05:15:27;7.75;;;4.60;;
66478;SDS011;53294;47.912;13.526;2023-08-24T05:17:53;6.90;;;5.03;;
66478;SDS011;53294;47.912;13.526;2023-08-24T05:20:26;6.95;;;5.07;;
66478;SDS011;53294;47.912;13.526;2023-08-24T05:22:53;7.88;;;4.60;;
66478;SDS011;53294;47.912;13.526;2023-08-24T05:25:23;7.10;;;4.57;;
66478;SDS011;53294;47.912;13.526;2023-08-24T05:27:49;9.23;;;5.28;;
66478;SDS011;53294;47.912;13.526;2023-08-24T05:30:17;6.70;;;4.45;;
66478;SDS011;53294;47.912;13.526;2023-08-24T05:32:43;7.82;;;5.13;;
66478;SDS011;53294;47.912;13.526;2023-08-24T05:35:10;6.07;;;4.43;;
66478;SDS011;53294;47.912;13.526;2023-08-24T05:37:37;6.40;;;4.57;;
66478;SDS011;53294;47.912;13.526;2023-08-24T05:40:04;8.57;;;4.93;;
66478;SDS011;53294;47.912;13.526;2023-08-24T05:42:31;9.32;;;4.65;;
66478;SDS011;53294;47.912;13.526;2023-08-24T05:44:58;8.50;;;4.78;;
66478;SDS011;53294;47.912;13.526;2023-08-24T05:47:25;6.50;;;4.45;;
66478;SDS011;53294;47.912;13.526;2023-08-24T05:49:51;7.50;;;4.82;;
66478;SDS011;53294;47.912;13.526;2023-08-24T05:52:18;10.15;;;4.57;;
66478;SDS011;53294;47.912;13.526;2023-08-24T05:54:45;5.85;;;4.30;;
66478;SDS011;53294;47.912;13.526;2023-08-24T05:57:11;5.40;;;4.20;;
66478;SDS011;53294;47.912;13.526;2023-08-24T05:59:38;6.75;;;4.55;;
66478;SDS011;53294;47.912;13.526;2023-08-24T06:02:05;6.47;;;4.60;;
66478;SDS011;53294;47.912;13.526;2023-08-24T06:04:31;5.95;;;4.63;;
66478;SDS011;53294;47.912;13.526;2023-08-24T06:06:58;4.93;;;4.03;;
66478;SDS011;53294;47.912;13.526;2023-08-24T06:09:25;6.07;;;4.60;;
66478;SDS011;53294;47.912;13.526;2023-08-24T06:11:52;6.03;;;4.43;;
66478;SDS011;53294;47.912;13.526;2023-08-24T06:14:18;5.20;;;4.05;;
66478;SDS011;53294;47.912;13.526;2023-08-24T06:16:45;6.50;;;4.65;;
66478;SDS011;53294;47.912;13.526;2023-08-24T06:19:12;6.15;;;4.22;;
66478;SDS011;53294;47.912;13.526;2023-08-24T06:21:38;6.63;;;4.80;;
66478;SDS011;53294;47.912;13.526;2023-08-24T06:24:05;6.60;;;4.85;;
66478;SDS011;53294;47.912;13.526;2023-08-24T06:26:32;7.90;;;5.20;;
66478;SDS011;53294;47.912;13.526;2023-08-24T06:28:59;7.43;;;4.20;;
66478;SDS011;53294;47.912;13.526;2023-08-24T06:31:25;6.50;;;5.00;;
66478;SDS011;53294;47.912;13.526;2023-08-24T06:33:52;5.78;;;4.72;;
66478;SDS011;53294;47.912;13.526;2023-08-24T06:36:19;5.43;;;4.85;;
66478;SDS011;53294;47.912;13.526;2023-08-24T06:38:45;5.18;;;4.53;;
66478;SDS011;53294;47.912;13.526;2023-08-24T06:41:12;6.30;;;4.53;;
66478;SDS011;53294;47.912;13.526;2023-08-24T06:43:39;7.93;;;4.80;;
66478;SDS011;53294;47.912;13.526;2023-08-24T06:46:06;5.43;;;4.90;;
66478;SDS011;53294;47.912;13.526;2023-08-24T06:48:36;5.95;;;4.43;;
66478;SDS011;53294;47.912;13.526;2023-08-24T06:51:08;5.63;;;4.55;;
66478;SDS011;53294;47.912;13.526;2023-08-24T06:53:34;6.05;;;4.38;;
66478;SDS011;53294;47.912;13.526;2023-08-24T06:56:01;5.97;;;4.78;;
66478;SDS011;53294;47.912;13.526;2023-08-24T06:58:28;6.22;;;4.32;;
66478;SDS011;53294;47.912;13.526;2023-08-24T07:00:55;5.43;;;4.43;;
66478;SDS011;53294;47.912;13.526;2023-08-24T07:03:23;5.53;;;4.70;;
66478;SDS011;53294;47.912;13.526;2023-08-24T07:05:50;6.93;;;4.97;;
66478;SDS011;53294;47.912;13.526;2023-08-24T07:08:17;7.53;;;5.35;;
66478;SDS011;53294;47.912;13.526;2023-08-24T07:10:44;6.70;;;5.18;;
66478;SDS011;53294;47.912;13.526;2023-08-24T07:13:11;5.75;;;5.03;;
66478;SDS011;53294;47.912;13.526;2023-08-24T07:15:37;6.30;;;5.05;;
66478;SDS011;53294;47.912;13.526;2023-08-24T07:18:04;5.90;;;4.95;;
66478;SDS011;53294;47.912;13.526;2023-08-24T07:20:32;5.57;;;4.90;;
66478;SDS011;53294;47.912;13.526;2023-08-24T07:22:59;5.85;;;5.03;;
66478;SDS011;53294;47.912;13.526;2023-08-24T07:25:26;5.53;;;4.93;;
66478;SDS011;53294;47.912;13.526;2023-08-24T07:27:54;5.57;;;5.03;;
66478;SDS011;53294;47.912;13.526;2023-08-24T07:30:25;5.68;;;4.82;;
66478;SDS011;53294;47.912;13.526;2023-08-24T07:32:59;6.07;;;5.05;;
66478;SDS011;53294;47.912;13.526;2023-08-24T07:35:27;7.78;;;5.20;;
66478;SDS011;53294;47.912;13.526;2023-08-24T07:37:54;6.28;;;5.07;;
66478;SDS011;53294;47.912;13.526;2023-08-24T07:40:21;6.45;;;5.28;;
66478;SDS011;53294;47.912;13.526;2023-08-24T07:42:50;15.70;;;5.38;;
66478;SDS011;53294;47.912;13.526;2023-08-24T07:45:23;6.72;;;5.45;;
66478;SDS011;53294;47.912;13.526;2023-08-24T07:47:50;7.18;;;5.03;;
66478;SDS011;53294;47.912;13.526;2023-08-24T07:50:17;7.03;;;5.18;;
66478;SDS011;53294;47.912;13.526;2023-08-24T07:52:43;6.43;;;4.88;;
66478;SDS011;53294;47.912;13.526;2023-08-24T07:55:11;6.20;;;5.10;;
66478;SDS011;53294;47.912;13.526;2023-08-24T07:57:37;6.70;;;5.30;;
66478;SDS011;53294;47.912;13.526;2023-08-24T08:00:05;5.72;;;4.93;;
66478;SDS011;53294;47.912;13.526;2023-08-24T08:02:35;7.10;;;5.38;;
66478;SDS011;53294;47.912;13.526;2023-08-24T08:05:04;6.82;;;5.15;;
66478;SDS011;53294;47.912;13.526;2023-08-24T08:07:34;6.47;;;5.13;;
66478;SDS011;53294;47.912;13.526;2023-08-24T08:10:00;7.88;;;5.63;;
66478;SDS011;53294;47.912;13.526;2023-08-24T08:12:27;9.93;;;5.85;;
66478;SDS011;53294;47.912;13.526;2023-08-24T08:14:55;8.00;;;5.85;;
66478;SDS011;53294;47.912;13.526;2023-08-24T08:17:22;10.13;;;6.05;;
66478;SDS011;53294;47.912;13.526;2023-08-24T08:19:53;8.07;;;5.57;;
66478;SDS011;53294;47.912;13.526;2023-08-24T08:22:21;9.98;;;6.03;;
66478;SDS011;53294;47.912;13.526;2023-08-24T08:24:48;8.25;;;5.88;;
66478;SDS011;53294;47.912;13.526;2023-08-24T08:27:16;9.15;;;6.13;;
66478;SDS011;53294;47.912;13.526;2023-08-24T08:29:42;7.63;;;6.10;;
66478;SDS011;53294;47.912;13.526;2023-08-24T08:32:09;9.48;;;5.90;;
66478;SDS011;53294;47.912;13.526;2023-08-24T08:34:37;8.90;;;6.13;;
66478;SDS011;53294;47.912;13.526;2023-08-24T08:37:04;7.55;;;5.78;;
66478;SDS011;53294;47.912;13.526;2023-08-24T08:39:32;8.25;;;6.05;;
66478;SDS011;53294;47.912;13.526;2023-08-24T08:41:59;6.70;;;5.82;;
66478;SDS011;53294;47.912;13.526;2023-08-24T08:44:26;9.77;;;5.72;;
66478;SDS011;53294;47.912;13.526;2023-08-24T08:46:59;9.73;;;6.43;;
66478;SDS011;53294;47.912;13.526;2023-08-24T08:49:26;7.03;;;5.78;;
66478;SDS011;53294;47.912;13.526;2023-08-24T08:51:56;8.45;;;6.00;;
66478;SDS011;53294;47.912;13.526;2023-08-24T08:54:23;7.32;;;6.28;;
66478;SDS011;53294;47.912;13.526;2023-08-24T08:56:49;7.80;;;6.13;;
66478;SDS011;53294;47.912;13.526;2023-08-24T08:59:16;7.88;;;6.05;;
66478;SDS011;53294;47.912;13.526;2023-08-24T09:01:44;8.75;;;6.63;;
66478;SDS011;53294;47.912;13.526;2023-08-24T09:04:14;9.35;;;7.68;;
66478;SDS011;53294;47.912;13.526;2023-08-24T09:06:41;12.52;;;7.90;;
66478;SDS011;53294;47.912;13.526;2023-08-24T09:09:08;7.05;;;4.15;;
66478;SDS011;53294;47.912;13.526;2023-08-24T09:11:35;7.63;;;5.85;;
66478;SDS011;53294;47.912;13.526;2023-08-24T09:14:03;10.05;;;6.38;;
66478;SDS011;53294;47.912;13.526;2023-08-24T09:16:29;9.73;;;6.53;;
66478;SDS011;53294;47.912;13.526;2023-08-24T09:18:56;9.68;;;7.15;;
66478;SDS011;53294;47.912;13.526;2023-08-24T09:21:23;9.57;;;5.82;;
66478;SDS011;53294;47.912;13.526;2023-08-24T09:23:55;9.98;;;6.38;;
66478;SDS011;53294;47.912;13.526;2023-08-24T09:26:28;8.73;;;7.00;;
66478;SDS011;53294;47.912;13.526;2023-08-24T09:30:51;11.03;;;7.17;;
66478;SDS011;53294;47.912;13.526;2023-08-24T09:34:46;9.05;;;5.63;;
66478;SDS011;53294;47.912;13.526;2023-08-24T09:37:16;8.88;;;5.70;;
66478;SDS011;53294;47.912;13.526;2023-08-24T09:39:43;7.07;;;4.63;;
66478;SDS011;53294;47.912;13.526;2023-08-24T09:42:10;7.82;;;4.85;;
66478;SDS011;53294;47.912;13.526;2023-08-24T09:44:37;8.18;;;5.00;;
66478;SDS011;53294;47.912;13.526;2023-08-24T09:47:10;9.20;;;5.63;;
66478;SDS011;53294;47.912;13.526;2023-08-24T09:49:37;6.80;;;5.03;;
66478;SDS011;53294;47.912;13.526;2023-08-24T09:52:06;10.23;;;5.18;;
66478;SDS011;53294;47.912;13.526;2023-08-24T09:54:36;7.38;;;5.20;;
66478;SDS011;53294;47.912;13.526;2023-08-24T09:57:05;7.05;;;5.18;;
66478;SDS011;53294;47.912;13.526;2023-08-24T09:59:35;6.65;;;5.18;;
66478;SDS011;53294;47.912;13.526;2023-08-24T10:02:06;8.50;;;5.40;;
66478;SDS011;53294;47.912;13.526;2023-08-24T10:04:41;6.07;;;4.80;;
66478;SDS011;53294;47.912;13.526;2023-08-24T10:07:10;6.47;;;4.82;;
66478;SDS011;53294;47.912;13.526;2023-08-24T10:09:46;9.57;;;5.43;;
66478;SDS011;53294;47.912;13.526;2023-08-24T10:12:20;9.10;;;5.32;;
66478;SDS011;53294;47.912;13.526;2023-08-24T10:14:53;7.10;;;4.85;;
66478;SDS011;53294;47.912;13.526;2023-08-24T10:17:26;5.85;;;5.20;;
66478;SDS011;53294;47.912;13.526;2023-08-24T10:19:54;6.70;;;5.03;;
66478;SDS011;53294;47.912;13.526;2023-08-24T10:22:24;5.90;;;4.63;;
66478;SDS011;53294;47.912;13.526;2023-08-24T10:24:51;8.10;;;5.55;;
66478;SDS011;53294;47.912;13.526;2023-08-24T10:27:19;8.35;;;5.20;;
66478;SDS011;53294;47.912;13.526;2023-08-24T10:29:47;8.55;;;5.25;;
66478;SDS011;53294;47.912;13.526;2023-08-24T10:32:14;7.65;;;5.53;;
66478;SDS011;53294;47.912;13.526;2023-08-24T10:34:41;7.70;;;5.45;;
66478;SDS011;53294;47.912;13.526;2023-08-24T10:37:08;8.13;;;5.70;;
66478;SDS011;53294;47.912;13.526;2023-08-24T10:39:45;6.35;;;5.10;;
66478;SDS011;53294;47.912;13.526;2023-08-24T10:42:13;8.27;;;5.70;;
66478;SDS011;53294;47.912;13.526;2023-08-24T10:44:43;7.50;;;5.80;;
66478;SDS011;53294;47.912;13.526;2023-08-24T10:47:12;9.07;;;6.30;;
66478;SDS011;53294;47.912;13.526;2023-08-24T10:49:45;7.40;;;5.43;;
66478;SDS011;53294;47.912;13.526;2023-08-24T10:52:34;8.10;;;5.97;;
66478;SDS011;53294;47.912;13.526;2023-08-24T10:55:04;8.05;;;5.97;;
66478;SDS011;53294;47.912;13.526;2023-08-24T10:57:55;6.97;;;5.03;;
66478;SDS011;53294;47.912;13.526;2023-08-24T11:00:25;8.35;;;5.68;;
66478;SDS011;53294;47.912;13.526;2023-08-24T11:02:53;8.57;;;5.55;;
66478;SDS011;53294;47.912;13.526;2023-08-24T11:05:29;7.13;;;5.47;;
66478;SDS011;53294;47.912;13.526;2023-08-24T11:08:01;10.13;;;5.47;;
66478;SDS011;53294;47.912;13.526;2023-08-24T11:13:12;8.68;;;5.63;;
66478;SDS011;53294;47.912;13.526;2023-08-24T11:15:43;7.40;;;4.95;;
66478;SDS011;53294;47.912;13.526;2023-08-24T11:23:12;7.70;;;5.30;;
66478;SDS011;53294;47.912;13.526;2023-08-24T11:25:41;7.35;;;6.05;;
66478;SDS011;53294;47.912;13.526;2023-08-24T11:28:08;8.15;;;5.47;;
66478;SDS011;53294;47.912;13.526;2023-08-24T11:30:35;7.15;;;5.55;;
66478;SDS011;53294;47.912;13.526;2023-08-24T11:33:02;6.43;;;5.05;;
66478;SDS011;53294;47.912;13.526;2023-08-24T11:35:30;8.43;;;5.72;;
66478;SDS011;53294;47.912;13.526;2023-08-24T11:38:01;7.57;;;5.60;;
66478;SDS011;53294;47.912;13.526;2023-08-24T11:40:28;7.10;;;4.97;;
66478;SDS011;53294;47.912;13.526;2023-08-24T11:42:55;6.78;;;5.72;;
66478;SDS011;53294;47.912;13.526;2023-08-24T11:45:23;6.55;;;5.50;;
66478;SDS011;53294;47.912;13.526;2023-08-24T11:47:50;5.82;;;5.10;;
66478;SDS011;53294;47.912;13.526;2023-08-24T11:50:17;8.55;;;5.65;;
66478;SDS011;53294;47.912;13.526;2023-08-24T11:52:44;7.43;;;5.55;;
66478;SDS011;53294;47.912;13.526;2023-08-24T11:55:11;6.60;;;5.45;;
66478;SDS011;53294;47.912;13.526;2023-08-24T11:57:38;7.38;;;5.65;;
66478;SDS011;53294;47.912;13.526;2023-08-24T12:00:05;9.30;;;5.90;;
66478;SDS011;53294;47.912;13.526;2023-08-24T12:02:33;6.93;;;5.97;;
66478;SDS011;53294;47.912;13.526;2023-08-24T12:05:01;6.55;;;5.60;;
66478;SDS011;53294;47.912;13.526;2023-08-24T12:07:32;6.13;;;5.50;;
66478;SDS011;53294;47.912;13.526;2023-08-24T12:10:02;7.50;;;5.80;;
66478;SDS011;53294;47.912;13.526;2023-08-24T12:12:29;6.45;;;5.50;;
66478;SDS011;53294;47.912;13.526;2023-08-24T12:14:56;6.45;;;5.13;;
66478;SDS011;53294;47.912;13.526;2023-08-24T12:17:26;7.03;;;5.70;;
66478;SDS011;53294;47.912;13.526;2023-08-24T12:19:57;9.07;;;5.40;;
66478;SDS011;53294;47.912;13.526;2023-08-24T12:22:25;9.63;;;5.90;;
66478;SDS011;53294;47.912;13.526;2023-08-24T12:24:52;6.88;;;5.70;;
66478;SDS011;53294;47.912;13.526;2023-08-24T12:27:22;8.70;;;6.28;;
66478;SDS011;53294;47.912;13.526;2023-08-24T12:29:52;7.38;;;5.63;;
66478;SDS011;53294;47.912;13.526;2023-08-24T12:32:20;7.35;;;5.80;;
66478;SDS011;53294;47.912;13.526;2023-08-24T12:34:49;8.80;;;6.03;;
66478;SDS011;53294;47.912;13.526;2023-08-24T12:37:17;8.40;;;6.25;;
66478;SDS011;53294;47.912;13.526;2023-08-24T12:39:44;7.78;;;5.32;;
66478;SDS011;53294;47.912;13.526;2023-08-24T12:42:11;6.80;;;5.53;;
66478;SDS011;53294;47.912;13.526;2023-08-24T12:44:37;7.55;;;6.03;;
66478;SDS011;53294;47.912;13.526;2023-08-24T12:47:04;7.97;;;5.60;;
66478;SDS011;53294;47.912;13.526;2023-08-24T12:49:31;7.43;;;6.07;;
66478;SDS011;53294;47.912;13.526;2023-08-24T12:51:58;6.53;;;5.57;;
66478;SDS011;53294;47.912;13.526;2023-08-24T12:54:24;7.20;;;5.70;;
66478;SDS011;53294;47.912;13.526;2023-08-24T12:56:51;6.72;;;5.22;;
66478;SDS011;53294;47.912;13.526;2023-08-24T12:59:18;7.00;;;5.55;;
66478;SDS011;53294;47.912;13.526;2023-08-24T13:01:45;7.50;;;5.35;;
66478;SDS011;53294;47.912;13.526;2023-08-24T13:04:11;6.63;;;5.35;;
66478;SDS011;53294;47.912;13.526;2023-08-24T13:06:38;5.90;;;5.10;;
66478;SDS011;53294;47.912;13.526;2023-08-24T13:09:05;8.80;;;5.65;;
66478;SDS011;53294;47.912;13.526;2023-08-24T13:11:32;7.47;;;5.00;;
66478;SDS011;53294;47.912;13.526;2023-08-24T13:13:59;7.75;;;5.28;;
66478;SDS011;53294;47.912;13.526;2023-08-24T13:16:25;7.20;;;5.50;;
66478;SDS011;53294;47.912;13.526;2023-08-24T13:18:54;6.47;;;5.20;;
66478;SDS011;53294;47.912;13.526;2023-08-24T13:21:21;7.15;;;5.15;;
66478;SDS011;53294;47.912;13.526;2023-08-24T13:23:48;8.15;;;5.00;;
66478;SDS011;53294;47.912;13.526;2023-08-24T13:26:18;6.22;;;5.07;;
66478;SDS011;53294;47.912;13.526;2023-08-24T13:28:49;9.65;;;5.40;;
66478;SDS011;53294;47.912;13.526;2023-08-24T13:31:16;7.13;;;5.32;;
66478;SDS011;53294;47.912;13.526;2023-08-24T13:33:46;9.27;;;6.40;;
66478;SDS011;53294;47.912;13.526;2023-08-24T13:36:13;5.95;;;5.05;;
66478;SDS011;53294;47.912;13.526;2023-08-24T13:38:40;8.15;;;4.88;;
66478;SDS011;53294;47.912;13.526;2023-08-24T13:41:06;6.40;;;5.07;;
66478;SDS011;53294;47.912;13.526;2023-08-24T13:43:33;7.68;;;5.03;;
66478;SDS011;53294;47.912;13.526;2023-08-24T13:46:00;6.75;;;5.20;;
66478;SDS011;53294;47.912;13.526;2023-08-24T13:48:30;9.63;;;5.47;;
66478;SDS011;53294;47.912;13.526;2023-08-24T13:51:00;6.60;;;5.50;;
66478;SDS011;53294;47.912;13.526;2023-08-24T13:53:27;7.75;;;5.30;;
66478;SDS011;53294;47.912;13.526;2023-08-24T13:55:53;6.03;;;5.15;;
66478;SDS011;53294;47.912;13.526;2023-08-24T13:58:20;7.07;;;5.60;;
66478;SDS011;53294;47.912;13.526;2023-08-24T14:00:47;7.47;;;4.85;;
66478;SDS011;53294;47.912;13.526;2023-08-24T14:03:14;8.45;;;5.40;;
66478;SDS011;53294;47.912;13.526;2023-08-24T14:05:40;6.47;;;4.60;;
66478;SDS011;53294;47.912;13.526;2023-08-24T14:08:08;5.85;;;4.82;;
66478;SDS011;53294;47.912;13.526;2023-08-24T14:10:35;9.07;;;5.68;;
66478;SDS011;53294;47.912;13.526;2023-08-24T14:13:01;5.68;;;4.90;;
66478;SDS011;53294;47.912;13.526;2023-08-24T14:15:28;7.88;;;5.03;;
66478;SDS011;53294;47.912;13.526;2023-08-24T14:17:55;6.70;;;5.32;;
66478;SDS011;53294;47.912;13.526;2023-08-24T14:20:26;6.50;;;5.50;;
66478;SDS011;53294;47.912;13.526;2023-08-24T14:22:54;7.32;;;5.13;;
66478;SDS011;53294;47.912;13.526;2023-08-24T14:25:20;9.63;;;5.43;;
66478;SDS011;53294;47.912;13.526;2023-08-24T14:27:47;7.40;;;5.30;;
66478;SDS011;53294;47.912;13.526;2023-08-24T14:30:29;6.80;;;5.63;;
66478;SDS011;53294;47.912;13.526;2023-08-24T14:32:56;6.25;;;4.85;;
66478;SDS011;53294;47.912;13.526;2023-08-24T14:35:23;7.07;;;4.97;;
66478;SDS011;53294;47.912;13.526;2023-08-24T14:37:49;9.23;;;5.40;;
66478;SDS011;53294;47.912;13.526;2023-08-24T14:40:16;9.45;;;5.35;;
66478;SDS011;53294;47.912;13.526;2023-08-24T14:42:44;5.65;;;4.85;;
66478;SDS011;53294;47.912;13.526;2023-08-24T14:45:11;6.82;;;5.20;;
66478;SDS011;53294;47.912;13.526;2023-08-24T14:47:37;7.10;;;5.18;;
66478;SDS011;53294;47.912;13.526;2023-08-24T14:50:05;7.15;;;5.10;;
66478;SDS011;53294;47.912;13.526;2023-08-24T14:52:32;7.47;;;5.88;;
66478;SDS011;53294;47.912;13.526;2023-08-24T14:54:59;7.97;;;4.43;;
66478;SDS011;53294;47.912;13.526;2023-08-24T14:57:25;6.47;;;5.30;;
66478;SDS011;53294;47.912;13.526;2023-08-24T14:59:52;7.25;;;5.40;;
66478;SDS011;53294;47.912;13.526;2023-08-24T15:02:19;6.72;;;5.15;;
66478;SDS011;53294;47.912;13.526;2023-08-24T15:04:45;7.05;;;4.68;;
66478;SDS011;53294;47.912;13.526;2023-08-24T15:07:12;7.20;;;4.88;;
66478;SDS011;53294;47.912;13.526;2023-08-24T15:09:39;6.55;;;5.00;;
66478;SDS011;53294;47.912;13.526;2023-08-24T15:12:05;8.68;;;5.57;;
66478;SDS011;53294;47.912;13.526;2023-08-24T15:14:32;7.90;;;5.70;;
66478;SDS011;53294;47.912;13.526;2023-08-24T15:16:59;9.73;;;5.50;;
66478;SDS011;53294;47.912;13.526;2023-08-24T15:19:26;7.85;;;5.57;;
66478;SDS011;53294;47.912;13.526;2023-08-24T15:21:52;8.88;;;5.57;;
66478;SDS011;53294;47.912;13.526;2023-08-24T15:24:19;9.40;;;5.53;;
66478;SDS011;53294;47.912;13.526;2023-08-24T15:26:45;5.95;;;5.22;;
66478;SDS011;53294;47.912;13.526;2023-08-24T15:29:13;7.72;;;5.30;;
66478;SDS011;53294;47.912;13.526;2023-08-24T15:31:44;10.38;;;5.32;;
66478;SDS011;53294;47.912;13.526;2023-08-24T15:34:11;8.88;;;5.28;;
66478;SDS011;53294;47.912;13.526;2023-08-24T15:36:38;6.13;;;5.32;;
66478;SDS011;53294;47.912;13.526;2023-08-24T15:39:06;7.47;;;5.35;;